Avioradar koristi kolačiće da bi Vam omogućio jednostavnije i ugodnije korištenje stranice. 

AVIORADAR - Croatian aviation website

METAR & TAF

[Source: ADDS]
METAR
LDZA 032130Z 00000KT CAVOK 23/17 Q1017 NOSIG =
LDZA 031725Z 0318/0418 VRB02KT CAVOK TX34/0414Z TN17/0403Z LDSP 032130Z 30007KT CAVOK 30/16 Q1014 NOSIG =
LDSP 031725Z 0318/0418 31005KT CAVOK TX35/0412Z TN25/0403Z BECMG 0408/0410 23012KT PROB30 TEMPO 0411/0415 04008KT TS FEW060CB BECMG 0416/0418 31005KT LDDU 032130Z 30006KT 280V020 CAVOK 27/21 Q1014 NOSIG =
LDDU 031725Z 0318/0418 29007KT CAVOK TX33/0409Z TN26/0403Z BECMG 0318/0320 03008KT BECMG 0410/0412 27008KT PROB30 TEMPO 0412/0416 02012KT TS FEW060CB LDPL 032130Z 07005KT CAVOK 25/15 Q1016 =
LDPL 031725Z 0318/0418 33006KT CAVOK TX35/0413Z TN21/0403Z BECMG 0320/0322 05008KT PROB40 TEMPO 0400/0408 06012KT BECMG 0409/0411 27009KT BECMG 0416/0418 30005KT LDZD 032130Z 00000KT CAVOK 23/20 Q1015 BECMG 06007KT =
LDZD 031725Z 0318/0418 34007KT CAVOK TX36/0412Z TN20/0403Z BECMG 0319/0321 06007KT PROB40 TEMPO 0404/0410 06012KT BECMG 0410/0412 28012KT BECMG 0416/0418 30005KT LDRI 032130Z 03003KT 340V080 CAVOK 28/15 Q1016 =
LDRI 031725Z 0318/0418 06008KT CAVOK TX36/0413Z TN24/0403Z TEMPO 0318/0408 06014KT BECMG 0410/0412 30008KT BECMG 0415/0417 VRB02KT LDOS 032130Z 31004KT CAVOK 23/18 Q1016 =
LDOS 031725Z 0318/0418 VRB02KT CAVOK TX35/0414Z TN17/0403Z PROB30 TEMPO 0412/0416 29006KT
TAF
LDZA 031725Z 0318/0418 VRB02KT CAVOK TX34/0414Z TN17/0403Z =
LDSP 031725Z 0318/0418 31005KT CAVOK TX35/0412Z TN25/0403Z BECMG 0408/0410 23012KT PROB30 TEMPO 0411/0415 04008KT TS FEW060CB BECMG 0416/0418 31005KT =
LDDU 031725Z 0318/0418 29007KT CAVOK TX33/0409Z TN26/0403Z BECMG 0318/0320 03008KT BECMG 0410/0412 27008KT PROB30 TEMPO 0412/0416 02012KT TS FEW060CB =
LDPL 031725Z 0318/0418 33006KT CAVOK TX35/0413Z TN21/0403Z BECMG 0320/0322 05008KT PROB40 TEMPO 0400/0408 06012KT BECMG 0409/0411 27009KT BECMG 0416/0418 30005KT =
LDZD 031725Z 0318/0418 34007KT CAVOK TX36/0412Z TN20/0403Z BECMG 0319/0321 06007KT PROB40 TEMPO 0404/0410 06012KT BECMG 0410/0412 28012KT BECMG 0416/0418 30005KT =
LDRI 031725Z 0318/0418 06008KT CAVOK TX36/0413Z TN24/0403Z TEMPO 0318/0408 06014KT BECMG 0410/0412 30008KT BECMG 0415/0417 VRB02KT =
LDOS 031725Z 0318/0418 VRB02KT CAVOK TX35/0414Z TN17/0403Z PROB30 TEMPO 0412/0416 29006KT =
SR / SS: 03:11 / 18:48 UTC (Zagreb 2022-07-03)